createdAt,value
2023-03-11T00:08:36.922Z,6.90
2023-03-11T00:19:00.367Z,6.80
2023-03-11T00:29:21.855Z,6.50
2023-03-11T00:39:44.894Z,6.20
2023-03-11T00:50:08.418Z,6.20
2023-03-11T01:00:32.499Z,6.20
2023-03-11T01:10:55.336Z,6.10
2023-03-11T01:21:18.562Z,6.10
2023-03-11T01:31:40.426Z,6.10
2023-03-11T01:42:04.120Z,6.00
2023-03-11T01:52:25.874Z,6.00
2023-03-11T02:02:52.864Z,5.90
2023-03-11T02:13:16.412Z,5.90
2023-03-11T02:23:47.540Z,5.90
2023-03-11T02:34:17.021Z,5.90
2023-03-11T02:44:40.714Z,5.90
2023-03-11T02:55:04.980Z,6.40
2023-03-11T03:05:27.015Z,6.70
2023-03-11T03:15:50.176Z,6.50
2023-03-11T03:26:14.794Z,6.30
2023-03-11T03:36:40.154Z,6.50
2023-03-11T03:47:01.993Z,6.20
2023-03-11T03:57:25.855Z,6.90
2023-03-11T04:07:47.874Z,6.90
2023-03-11T04:18:10.886Z,7.10
2023-03-11T04:28:33.408Z,6.60
2023-03-11T04:38:58.355Z,6.30
2023-03-11T04:49:22.360Z,6.30
2023-03-11T04:59:46.949Z,6.30
2023-03-11T05:10:11.262Z,6.30
2023-03-11T05:20:35.113Z,6.40
2023-03-11T05:30:57.778Z,6.30
2023-03-11T05:41:21.474Z,6.40
2023-03-11T05:51:43.284Z,6.50
2023-03-11T06:02:06.517Z,6.50
2023-03-11T06:12:30.003Z,6.70
2023-03-11T06:23:17.614Z,6.90
2023-03-11T06:33:42.185Z,6.80
2023-03-11T06:44:06.025Z,6.80
2023-03-11T06:54:29.321Z,6.90
2023-03-11T07:04:53.232Z,6.80
2023-03-11T07:15:17.827Z,6.90
2023-03-11T07:25:47.258Z,7.00
2023-03-11T07:36:10.402Z,7.00
2023-03-11T07:46:34.812Z,6.90
2023-03-11T07:56:56.749Z,6.90
2023-03-11T08:07:20.893Z,7.30
2023-03-11T08:17:42.501Z,7.10
2023-03-11T08:28:07.606Z,7.50
2023-03-11T08:38:29.292Z,7.30
2023-03-11T08:48:53.121Z,7.60
2023-03-11T08:59:14.796Z,7.50
2023-03-11T09:09:38.270Z,7.50
2023-03-11T09:20:00.162Z,7.80
2023-03-11T09:30:26.072Z,7.50
2023-03-11T09:40:57.722Z,7.70
2023-03-11T09:51:28.821Z,7.60
2023-03-11T10:01:51.513Z,7.50
2023-03-11T10:12:27.755Z,7.40
2023-03-11T10:22:59.408Z,7.50
2023-03-11T10:33:27.936Z,8.00
2023-03-11T10:43:55.588Z,7.40
2023-03-11T10:54:33.750Z,7.40
2023-03-11T11:05:22.758Z,7.50
2023-03-11T11:15:54.887Z,7.90
2023-03-11T11:26:20.096Z,7.80
2023-03-11T11:36:43.317Z,7.80
2023-03-11T11:47:13.899Z,7.80
2023-03-11T11:57:38.181Z,7.90
2023-03-11T12:08:09.916Z,8.80
2023-03-11T12:18:39.291Z,8.20
2023-03-11T12:29:06.039Z,7.70
2023-03-11T12:39:31.904Z,8.50
2023-03-11T12:49:55.288Z,7.60
2023-03-11T13:00:28.788Z,7.70
2023-03-11T13:10:51.675Z,7.90
2023-03-11T13:21:42.137Z,8.10
2023-03-11T13:32:29.336Z,7.80
2023-03-11T13:42:55.458Z,8.20
2023-03-11T13:53:22.037Z,8.10
2023-03-11T14:03:46.883Z,8.30
2023-03-11T14:14:31.306Z,8.20
2023-03-11T14:24:54.236Z,8.70
2023-03-11T14:35:22.240Z,8.90
2023-03-11T14:45:45.366Z,8.90
2023-03-11T14:56:09.771Z,8.70
2023-03-11T15:06:34.774Z,8.50
2023-03-11T15:17:11.749Z,9.10
2023-03-11T15:27:38.351Z,8.70
2023-03-11T15:38:21.120Z,8.20
2023-03-11T15:48:45.122Z,8.50
2023-03-11T15:59:07.315Z,8.90
2023-03-11T16:09:32.979Z,8.40
2023-03-11T16:19:54.459Z,8.20
2023-03-11T16:30:18.247Z,7.90
2023-03-11T16:40:40.145Z,8.00
2023-03-11T16:51:04.921Z,7.80
2023-03-11T17:01:26.458Z,7.40
2023-03-11T17:11:50.125Z,7.30
2023-03-11T17:22:11.799Z,6.90
2023-03-11T17:32:35.059Z,7.00
2023-03-11T17:42:56.789Z,6.60
2023-03-11T17:53:19.811Z,6.70
2023-03-11T18:03:41.954Z,6.50
2023-03-11T18:14:05.019Z,6.00
2023-03-11T18:24:26.570Z,6.10
2023-03-11T18:34:52.210Z,6.40
2023-03-11T18:45:14.268Z,5.80
2023-03-11T18:55:37.635Z,5.90
2023-03-11T19:05:59.912Z,5.80
2023-03-11T19:16:26.221Z,5.70
2023-03-11T19:26:47.962Z,5.70
2023-03-11T19:37:11.328Z,6.00
2023-03-11T19:47:32.881Z,6.00
2023-03-11T19:57:55.975Z,6.00
2023-03-11T20:08:20.681Z,6.00
2023-03-11T20:18:44.706Z,6.20
2023-03-11T20:29:06.702Z,5.90
2023-03-11T20:39:29.595Z,5.90
2023-03-11T20:49:53.757Z,5.70
2023-03-11T21:00:17.364Z,5.80
2023-03-11T21:10:39.273Z,5.80
2023-03-11T21:21:03.823Z,5.60
2023-03-11T21:31:29.303Z,5.40
2023-03-11T21:41:56.494Z,5.30
2023-03-11T21:52:18.239Z,5.50
2023-03-11T22:02:41.450Z,5.60
2023-03-11T22:13:04.050Z,5.60
2023-03-11T22:23:28.048Z,5.40
2023-03-11T22:33:49.629Z,5.20
2023-03-11T22:44:12.910Z,5.20
2023-03-11T22:54:34.521Z,5.30
2023-03-11T23:04:57.663Z,5.10
2023-03-11T23:15:20.503Z,5.10
2023-03-11T23:25:43.717Z,4.90
2023-03-11T23:36:08.000Z,4.90
2023-03-11T23:46:31.422Z,4.80
2023-03-11T23:56:52.975Z,4.70
